createdAt,value
2018-10-06T06:01:24.368Z,3.67
2018-10-06T06:03:52.680Z,4.50
2018-10-06T06:06:20.889Z,4.43
2018-10-06T06:08:48.907Z,3.90
2018-10-06T06:11:16.934Z,4.37
2018-10-06T06:13:44.955Z,4.30
2018-10-06T06:16:25.151Z,4.00
2018-10-06T06:18:53.138Z,4.50
2018-10-06T06:21:21.157Z,3.50
2018-10-06T06:23:49.211Z,3.80
2018-10-06T06:26:17.130Z,3.73
2018-10-06T06:28:45.537Z,3.33
2018-10-06T06:31:13.599Z,3.77
2018-10-06T06:33:41.947Z,3.60
2018-10-06T06:36:09.905Z,3.63
2018-10-06T06:38:38.106Z,3.67
2018-10-06T06:41:06.569Z,3.13
2018-10-06T06:43:34.870Z,3.33
2018-10-06T06:46:03.001Z,3.13
2018-10-06T06:48:33.151Z,3.90
2018-10-06T06:51:01.149Z,2.80
2018-10-06T06:53:29.125Z,2.90
2018-10-06T06:55:57.113Z,3.70
2018-10-06T06:58:25.384Z,3.10
2018-10-06T07:00:53.929Z,3.37
2018-10-06T07:03:22.489Z,3.00
2018-10-06T07:05:51.076Z,3.13
2018-10-06T07:08:19.102Z,2.80
2018-10-06T07:10:47.317Z,2.87
2018-10-06T07:13:15.278Z,2.80
2018-10-06T07:15:43.335Z,2.73
2018-10-06T07:18:11.350Z,2.63
2018-10-06T07:20:39.386Z,3.07
2018-10-06T07:23:07.942Z,3.00
2018-10-06T07:25:36.301Z,2.83
2018-10-06T07:28:04.590Z,3.30
2018-10-06T07:30:32.784Z,3.70
2018-10-06T07:33:01.239Z,3.43
2018-10-06T07:35:30.112Z,3.03
2018-10-06T07:37:58.721Z,3.20
2018-10-06T07:40:26.893Z,3.43
2018-10-06T07:42:55.993Z,2.77
2018-10-06T07:45:23.997Z,3.00
2018-10-06T07:47:52.733Z,3.00
2018-10-06T07:50:20.741Z,2.57
2018-10-06T07:52:48.707Z,2.60
2018-10-06T07:55:16.746Z,2.97
2018-10-06T07:57:44.711Z,3.23
2018-10-06T08:00:12.737Z,2.60
2018-10-06T08:02:40.750Z,2.70
2018-10-06T08:05:08.784Z,3.40
2018-10-06T08:07:36.806Z,3.20
2018-10-06T08:10:06.173Z,3.37
2018-10-06T08:12:36.036Z,2.83
2018-10-06T08:15:05.405Z,3.20
2018-10-06T08:17:35.013Z,3.02
2018-10-06T08:20:03.201Z,2.77
2018-10-06T08:22:31.252Z,3.10
2018-10-06T08:24:59.460Z,2.80
2018-10-06T08:27:27.513Z,2.57
2018-10-06T08:29:55.544Z,2.93
2018-10-06T08:32:23.555Z,2.53
2018-10-06T08:34:52.213Z,2.80
2018-10-06T08:37:20.172Z,3.00
2018-10-06T08:39:49.007Z,2.80
2018-10-06T08:42:17.318Z,2.90
2018-10-06T08:44:45.349Z,3.13
2018-10-06T08:47:13.434Z,2.83
2018-10-06T08:49:41.428Z,2.70
2018-10-06T08:52:09.486Z,2.60
2018-10-06T08:54:37.472Z,2.63
2018-10-06T08:57:05.497Z,2.53
2018-10-06T08:59:33.486Z,2.50
2018-10-06T09:02:01.554Z,2.50
2018-10-06T09:04:29.582Z,2.33
2018-10-06T09:06:57.654Z,2.67
2018-10-06T09:09:27.430Z,3.37
2018-10-06T09:11:55.586Z,2.47
2018-10-06T09:14:27.575Z,2.60
2018-10-06T09:16:56.534Z,3.40
2018-10-06T09:19:24.784Z,3.50
2018-10-06T09:21:52.800Z,3.60
2018-10-06T09:24:21.904Z,3.80
2018-10-06T09:26:49.968Z,4.10
2018-10-06T09:29:19.120Z,3.70
2018-10-06T09:31:47.545Z,4.00
2018-10-06T09:34:17.580Z,6.30
2018-10-06T09:36:47.501Z,5.57
2018-10-06T09:39:15.652Z,4.90
2018-10-06T09:41:45.213Z,4.13
2018-10-06T09:44:13.801Z,4.37
2018-10-06T09:46:42.121Z,3.67
2018-10-06T09:49:10.418Z,3.10
2018-10-06T09:51:38.416Z,3.30
2018-10-06T09:54:06.455Z,3.20
2018-10-06T09:56:34.490Z,3.63
2018-10-06T09:59:03.114Z,3.80
2018-10-06T10:04:19.994Z,2.80
2018-10-06T10:06:48.020Z,2.33
2018-10-06T10:09:16.647Z,2.20
2018-10-06T10:11:44.719Z,2.27
2018-10-06T10:14:12.998Z,2.50
2018-10-06T10:16:41.063Z,2.30
2018-10-06T10:19:09.227Z,2.63
2018-10-06T10:21:37.410Z,2.60
2018-10-06T10:24:09.338Z,3.13
2018-10-06T10:26:37.338Z,2.80
2018-10-06T10:29:05.320Z,2.13
2018-10-06T10:31:33.893Z,3.23
2018-10-06T10:34:01.934Z,2.80
2018-10-06T10:36:30.567Z,2.23
2018-10-06T10:38:58.877Z,3.10
2018-10-06T10:41:28.068Z,2.33
2018-10-06T10:43:56.748Z,2.50
2018-10-06T10:46:28.323Z,2.60
2018-10-06T10:48:57.307Z,3.23
2018-10-06T10:51:27.043Z,2.50
2018-10-06T10:53:55.034Z,2.47
2018-10-06T10:56:23.033Z,2.80
2018-10-06T10:58:52.699Z,2.40
2018-10-06T11:01:21.367Z,2.90
2018-10-06T11:03:49.342Z,2.30
2018-10-06T11:06:17.304Z,2.20
2018-10-06T11:08:45.278Z,2.20
2018-10-06T11:11:14.251Z,2.37
2018-10-06T11:13:42.345Z,2.43
2018-10-06T11:16:10.610Z,2.20
2018-10-06T11:18:39.001Z,2.43
2018-10-06T11:21:06.986Z,2.53
2018-10-06T11:26:33.036Z,2.53
2018-10-06T11:29:18.491Z,3.13
2018-10-06T11:31:46.525Z,2.30
2018-10-06T11:34:14.615Z,2.37
2018-10-06T11:36:42.598Z,2.37
2018-10-06T11:39:11.473Z,2.10
2018-10-06T11:41:39.707Z,2.20
2018-10-06T11:44:08.139Z,2.23
2018-10-06T11:46:36.213Z,2.70
2018-10-06T11:49:04.310Z,2.17
2018-10-06T11:51:32.347Z,1.90
2018-10-06T11:54:00.410Z,2.13
2018-10-06T11:56:28.517Z,2.70
2018-10-06T11:58:56.572Z,2.30
2018-10-06T12:01:24.529Z,2.40
2018-10-06T12:03:52.572Z,2.23
2018-10-06T12:06:20.537Z,2.23
2018-10-06T12:08:48.509Z,2.20
2018-10-06T12:11:16.475Z,2.37
2018-10-06T12:13:44.528Z,2.40
2018-10-06T12:16:24.724Z,2.37
2018-10-06T12:18:52.742Z,2.50
2018-10-06T12:21:20.766Z,2.10
2018-10-06T12:23:48.743Z,2.43
2018-10-06T12:26:16.691Z,2.20
2018-10-06T12:28:44.631Z,2.40
2018-10-06T12:31:12.798Z,2.57
2018-10-06T12:33:40.621Z,2.90
2018-10-06T12:36:08.634Z,2.33
2018-10-06T12:38:36.674Z,2.23
2018-10-06T12:41:04.674Z,2.00
2018-10-06T12:43:32.660Z,2.43
2018-10-06T12:46:00.669Z,2.30
2018-10-06T12:48:28.649Z,2.50
2018-10-06T12:50:56.630Z,2.73
2018-10-06T12:53:24.636Z,2.47
2018-10-06T12:55:52.601Z,2.17
2018-10-06T12:58:20.606Z,2.50
2018-10-06T13:00:48.581Z,2.20
2018-10-06T13:03:16.592Z,2.30
2018-10-06T13:05:44.616Z,2.60
2018-10-06T13:08:12.601Z,2.47
2018-10-06T13:10:40.539Z,2.20
2018-10-06T13:13:08.486Z,2.13
2018-10-06T13:15:36.508Z,1.93
2018-10-06T13:18:04.517Z,2.37
2018-10-06T13:20:32.519Z,2.30
2018-10-06T13:23:00.985Z,1.87
2018-10-06T13:25:29.013Z,2.67
2018-10-06T13:27:57.005Z,2.30
2018-10-06T13:30:25.035Z,2.33
2018-10-06T13:32:53.016Z,2.33
2018-10-06T13:35:20.999Z,2.30
2018-10-06T13:37:49.008Z,1.90
2018-10-06T13:40:16.974Z,2.60
2018-10-06T13:42:44.959Z,2.50
2018-10-06T13:45:12.981Z,2.90
2018-10-06T13:47:40.987Z,2.40
2018-10-06T13:50:08.985Z,2.27
2018-10-06T13:52:36.985Z,2.30
2018-10-06T13:55:04.992Z,2.30
2018-10-06T13:57:33.022Z,2.73
2018-10-06T14:00:01.001Z,2.33
2018-10-06T14:02:29.011Z,2.10
2018-10-06T14:04:57.016Z,2.43
2018-10-06T14:07:25.011Z,2.10
2018-10-06T14:09:53.041Z,2.87
2018-10-06T14:12:21.039Z,2.40
2018-10-06T14:14:49.043Z,2.50
2018-10-06T14:17:17.053Z,2.70
2018-10-06T14:19:45.041Z,2.40
2018-10-06T14:22:13.336Z,2.17
2018-10-06T14:24:41.436Z,2.70
2018-10-06T14:27:09.483Z,2.53
2018-10-06T14:29:37.457Z,2.63
2018-10-06T14:32:05.476Z,2.80
2018-10-06T14:34:33.475Z,2.57
2018-10-06T14:37:01.497Z,2.20
2018-10-06T14:39:29.521Z,2.33
2018-10-06T14:41:57.548Z,2.20
2018-10-06T14:49:59.465Z,2.47
2018-10-06T14:52:27.439Z,2.43
2018-10-06T14:54:55.668Z,2.60
2018-10-06T14:57:23.625Z,2.60
2018-10-06T14:59:51.666Z,2.10
2018-10-06T15:02:19.819Z,2.50
2018-10-06T15:04:47.907Z,2.57
2018-10-06T15:07:15.973Z,2.30
2018-10-06T15:09:43.938Z,2.40
2018-10-06T15:12:11.905Z,2.47
2018-10-06T15:14:39.902Z,2.60
2018-10-06T15:17:07.904Z,2.63
2018-10-06T15:19:35.955Z,2.90
2018-10-06T15:27:53.935Z,5.00
2018-10-06T15:30:21.953Z,3.73
2018-10-06T15:32:49.984Z,3.00
2018-10-06T15:35:18.054Z,2.50
2018-10-06T15:37:46.197Z,2.80
2018-10-06T15:40:14.203Z,3.40
2018-10-06T15:42:42.223Z,2.60
2018-10-06T15:45:10.300Z,2.77
2018-10-06T15:47:38.259Z,9.23
2018-10-06T15:50:06.251Z,7.07
2018-10-06T15:52:34.244Z,5.30
2018-10-06T15:55:02.245Z,3.60
2018-10-06T15:57:30.263Z,2.60
2018-10-06T15:59:58.349Z,3.57
2018-10-06T16:02:26.608Z,3.97
2018-10-06T16:04:54.621Z,10.00
2018-10-06T16:07:22.639Z,10.27
2018-10-06T16:09:51.005Z,7.37
2018-10-06T16:12:19.530Z,3.30
2018-10-06T16:14:47.479Z,2.80
2018-10-06T16:17:15.468Z,2.97
2018-10-06T16:19:43.571Z,3.00
2018-10-06T16:22:12.017Z,3.03
2018-10-06T16:24:40.052Z,2.67
2018-10-06T16:27:08.057Z,3.33
2018-10-06T16:29:36.077Z,3.10
2018-10-06T16:32:04.291Z,2.83
2018-10-06T16:34:32.749Z,3.10
2018-10-06T16:37:14.448Z,3.37
2018-10-06T16:39:42.455Z,3.20
2018-10-06T16:42:10.899Z,3.23
2018-10-06T16:44:38.988Z,3.40
2018-10-06T16:47:07.400Z,3.83
2018-10-06T16:49:38.477Z,3.63
2018-10-06T16:52:06.496Z,3.03
2018-10-06T16:54:34.596Z,3.13
2018-10-06T16:57:02.651Z,3.33
2018-10-06T16:59:30.713Z,3.53
2018-10-06T17:01:58.912Z,3.50
2018-10-06T17:04:26.751Z,3.10
2018-10-06T17:06:54.778Z,3.40
2018-10-06T17:09:23.169Z,3.73
2018-10-06T17:11:55.663Z,3.27
2018-10-06T17:14:25.225Z,6.70
2018-10-06T17:16:54.157Z,4.50
2018-10-06T17:19:22.270Z,4.80
2018-10-06T17:21:50.865Z,5.30
2018-10-06T17:24:22.770Z,5.10
2018-10-06T17:26:52.357Z,18.23
2018-10-06T17:29:28.444Z,7.17
2018-10-06T17:32:04.301Z,5.30
2018-10-06T17:34:41.250Z,6.87
2018-10-06T17:37:24.340Z,4.20
2018-10-06T17:40:01.053Z,4.90
2018-10-06T17:42:30.276Z,4.10
2018-10-06T17:45:21.773Z,4.07
2018-10-06T17:47:54.420Z,4.43
2018-10-06T17:50:22.785Z,4.00
2018-10-06T17:52:56.609Z,3.87
2018-10-06T17:55:27.100Z,4.60
2018-10-06T17:57:55.683Z,4.63
2018-10-06T18:00:24.641Z,4.57
2018-10-06T18:02:53.883Z,5.10
2018-10-06T18:05:33.686Z,4.80
2018-10-06T18:08:02.060Z,4.43
2018-10-06T18:10:30.109Z,4.27
2018-10-06T18:12:58.162Z,4.30
2018-10-06T18:15:27.182Z,4.40
2018-10-06T18:17:55.452Z,4.13
2018-10-06T18:20:23.534Z,4.33
2018-10-06T18:22:52.233Z,5.30
2018-10-06T18:25:20.213Z,4.40
2018-10-06T18:27:48.212Z,5.10
2018-10-06T18:30:16.209Z,10.13
2018-10-06T18:32:44.194Z,10.00
2018-10-06T18:35:12.265Z,5.57
2018-10-06T18:37:40.435Z,4.23
2018-10-06T18:40:08.576Z,3.50
2018-10-06T18:42:36.666Z,3.97
2018-10-06T18:45:05.233Z,3.67
2018-10-06T18:47:33.699Z,4.07
2018-10-06T18:50:02.226Z,4.40
2018-10-06T18:52:30.387Z,4.37
2018-10-06T18:54:58.304Z,4.50
2018-10-06T18:57:26.505Z,5.37
2018-10-06T18:59:54.734Z,4.40
2018-10-06T19:02:23.097Z,4.23
2018-10-06T19:04:51.165Z,4.70
2018-10-06T19:07:19.636Z,5.40
2018-10-06T19:09:47.656Z,4.73
2018-10-06T19:12:16.188Z,4.37
2018-10-06T19:14:44.312Z,4.97
2018-10-06T19:17:12.302Z,4.90
2018-10-06T19:19:40.722Z,5.03
2018-10-06T19:22:09.325Z,4.97
2018-10-06T19:24:37.630Z,4.80
2018-10-06T19:27:06.319Z,5.00
2018-10-06T19:29:34.377Z,4.90
2018-10-06T19:32:03.023Z,4.47
2018-10-06T19:34:31.121Z,4.77
2018-10-06T19:37:16.566Z,4.90
2018-10-06T19:39:45.132Z,4.47
2018-10-06T19:42:19.005Z,4.90
2018-10-06T19:44:49.115Z,5.30
2018-10-06T19:47:17.566Z,5.40
2018-10-06T19:49:52.810Z,5.20
2018-10-06T19:52:21.037Z,4.70
2018-10-06T19:54:49.729Z,5.80
2018-10-06T20:00:07.386Z,5.07
2018-10-06T20:02:35.465Z,6.20
2018-10-06T20:05:04.109Z,5.30
2018-10-06T20:07:50.721Z,5.47
2018-10-06T20:10:18.776Z,5.10
2018-10-06T20:12:47.161Z,4.70
2018-10-06T20:15:15.704Z,4.40
2018-10-06T20:17:43.893Z,4.67
2018-10-06T20:20:12.195Z,4.70
2018-10-06T20:22:40.242Z,4.50
2018-10-06T20:25:08.703Z,4.10
2018-10-06T20:27:37.074Z,4.73
2018-10-06T20:30:05.179Z,4.70
2018-10-06T20:32:33.487Z,4.20
2018-10-06T20:35:01.485Z,4.30
2018-10-06T20:37:29.561Z,4.60
2018-10-06T20:39:57.788Z,4.63
2018-10-06T20:42:26.738Z,4.97
2018-10-06T20:44:54.783Z,4.47
2018-10-06T20:47:22.933Z,4.90
2018-10-06T20:49:50.936Z,4.30
2018-10-06T20:52:18.983Z,4.10
2018-10-06T20:54:47.229Z,4.30
2018-10-06T20:57:15.272Z,4.73
2018-10-06T20:59:43.453Z,4.60
2018-10-06T21:02:11.548Z,5.20
2018-10-06T21:04:39.934Z,4.80
2018-10-06T21:07:07.971Z,4.73
2018-10-06T21:09:36.531Z,4.70
2018-10-06T21:12:04.511Z,4.50
2018-10-06T21:14:32.949Z,4.10
2018-10-06T21:17:01.235Z,4.00
2018-10-06T21:19:29.259Z,4.20
2018-10-06T21:21:57.663Z,5.27
2018-10-06T21:24:25.788Z,4.60
2018-10-06T21:26:54.165Z,5.43
2018-10-06T21:29:23.396Z,5.83
2018-10-06T21:34:41.025Z,6.20
2018-10-06T21:37:09.378Z,5.63
2018-10-06T21:39:38.027Z,6.43
2018-10-06T21:42:06.297Z,6.70
2018-10-06T21:44:34.729Z,6.70
2018-10-06T21:47:03.218Z,6.10
2018-10-06T21:49:32.075Z,6.57
2018-10-06T21:52:01.715Z,7.60
2018-10-06T21:54:30.508Z,6.17
2018-10-06T21:56:59.621Z,6.20
2018-10-06T21:59:28.529Z,6.53
